sensor_id;sensor_type;location;lat;lon;timestamp;pressure;altitude;pressure_sealevel;temperature
27826;BMP280;15077;49.704;9.908;2023-11-19T00:00:27;98001.50;;;11.40
27826;BMP280;15077;49.704;9.908;2023-11-19T00:02:54;97981.94;;;11.42
27826;BMP280;15077;49.704;9.908;2023-11-19T00:05:20;97985.81;;;11.51
27826;BMP280;15077;49.704;9.908;2023-11-19T00:07:46;97974.50;;;11.58
27826;BMP280;15077;49.704;9.908;2023-11-19T00:10:14;97967.50;;;11.63
27826;BMP280;15077;49.704;9.908;2023-11-19T00:12:44;97963.91;;;11.66
27826;BMP280;15077;49.704;9.908;2023-11-19T00:15:10;97965.41;;;11.70
27826;BMP280;15077;49.704;9.908;2023-11-19T00:17:40;97967.72;;;11.75
27826;BMP280;15077;49.704;9.908;2023-11-19T00:20:14;97957.44;;;11.78
27826;BMP280;15077;49.704;9.908;2023-11-19T00:22:41;97947.97;;;11.81
27826;BMP280;15077;49.704;9.908;2023-11-19T00:25:11;97954.53;;;11.85
27826;BMP280;15077;49.704;9.908;2023-11-19T00:27:37;97953.56;;;11.88
27826;BMP280;15077;49.704;9.908;2023-11-19T00:30:07;97949.22;;;11.90
27826;BMP280;15077;49.704;9.908;2023-11-19T00:32:36;97946.59;;;11.91
27826;BMP280;15077;49.704;9.908;2023-11-19T00:35:04;97952.53;;;11.92
27826;BMP280;15077;49.704;9.908;2023-11-19T00:37:31;97949.84;;;11.95
27826;BMP280;15077;49.704;9.908;2023-11-19T00:39:56;97949.91;;;11.93
27826;BMP280;15077;49.704;9.908;2023-11-19T00:42:23;97953.19;;;11.95
27826;BMP280;15077;49.704;9.908;2023-11-19T00:44:51;97952.31;;;11.96
27826;BMP280;15077;49.704;9.908;2023-11-19T00:47:17;97948.03;;;11.97
27826;BMP280;15077;49.704;9.908;2023-11-19T00:49:50;97945.34;;;12.00
27826;BMP280;15077;49.704;9.908;2023-11-19T00:52:16;97943.59;;;12.02
27826;BMP280;15077;49.704;9.908;2023-11-19T00:54:43;97933.34;;;12.03
27826;BMP280;15077;49.704;9.908;2023-11-19T00:57:08;97937.44;;;12.06
27826;BMP280;15077;49.704;9.908;2023-11-19T00:59:34;97929.75;;;12.07
27826;BMP280;15077;49.704;9.908;2023-11-19T01:02:00;97934.66;;;12.10
27826;BMP280;15077;49.704;9.908;2023-11-19T01:04:34;97937.97;;;12.12
27826;BMP280;15077;49.704;9.908;2023-11-19T01:07:01;97930.28;;;12.13
27826;BMP280;15077;49.704;9.908;2023-11-19T01:09:29;97924.28;;;12.14
27826;BMP280;15077;49.704;9.908;2023-11-19T01:11:57;97917.50;;;12.15
27826;BMP280;15077;49.704;9.908;2023-11-19T01:14:23;97909.81;;;12.16
27826;BMP280;15077;49.704;9.908;2023-11-19T01:16:49;97907.19;;;12.18
27826;BMP280;15077;49.704;9.908;2023-11-19T01:19:14;97889.31;;;12.19
27826;BMP280;15077;49.704;9.908;2023-11-19T01:21:40;97886.72;;;12.21
27826;BMP280;15077;49.704;9.908;2023-11-19T01:24:06;97894.25;;;12.22
27826;BMP280;15077;49.704;9.908;2023-11-19T01:26:37;97906.13;;;12.22
27826;BMP280;15077;49.704;9.908;2023-11-19T01:29:03;97908.66;;;12.22
27826;BMP280;15077;49.704;9.908;2023-11-19T01:31:30;97913.75;;;12.22
27826;BMP280;15077;49.704;9.908;2023-11-19T01:33:57;97905.22;;;12.23
27826;BMP280;15077;49.704;9.908;2023-11-19T01:36:22;97909.41;;;12.24
27826;BMP280;15077;49.704;9.908;2023-11-19T01:38:49;97903.41;;;12.25
27826;BMP280;15077;49.704;9.908;2023-11-19T01:41:15;97901.66;;;12.27
27826;BMP280;15077;49.704;9.908;2023-11-19T01:43:41;97899.09;;;12.27
27826;BMP280;15077;49.704;9.908;2023-11-19T01:46:07;97899.91;;;12.27
27826;BMP280;15077;49.704;9.908;2023-11-19T01:48:37;97902.38;;;12.29
27826;BMP280;15077;49.704;9.908;2023-11-19T01:51:06;97897.31;;;12.29
27826;BMP280;15077;49.704;9.908;2023-11-19T01:53:35;97903.13;;;12.31
27826;BMP280;15077;49.704;9.908;2023-11-19T01:56:02;97903.13;;;12.31
27826;BMP280;15077;49.704;9.908;2023-11-19T01:58:28;97892.94;;;12.31
27826;BMP280;15077;49.704;9.908;2023-11-19T02:00:56;97894.59;;;12.32
27826;BMP280;15077;49.704;9.908;2023-11-19T02:03:22;97883.63;;;12.31
27826;BMP280;15077;49.704;9.908;2023-11-19T02:05:49;97895.41;;;12.32
27826;BMP280;15077;49.704;9.908;2023-11-19T02:08:16;97903.13;;;12.31
27826;BMP280;15077;49.704;9.908;2023-11-19T02:10:42;97899.69;;;12.32
27826;BMP280;15077;49.704;9.908;2023-11-19T02:13:08;97903.13;;;12.31
27826;BMP280;15077;49.704;9.908;2023-11-19T02:15:36;97904.78;;;12.32
27826;BMP280;15077;49.704;9.908;2023-11-19T02:18:25;97896.25;;;12.33
27826;BMP280;15077;49.704;9.908;2023-11-19T02:20:55;97880.16;;;12.32
27826;BMP280;15077;49.704;9.908;2023-11-19T02:23:22;97866.72;;;12.30
27826;BMP280;15077;49.704;9.908;2023-11-19T02:28:43;97852.28;;;12.31
27826;BMP280;15077;49.704;9.908;2023-11-19T02:31:09;97854.75;;;12.32
27826;BMP280;15077;49.704;9.908;2023-11-19T02:33:36;97846.25;;;12.33
27826;BMP280;15077;49.704;9.908;2023-11-19T02:36:04;97836.06;;;12.33
27826;BMP280;15077;49.704;9.908;2023-11-19T02:38:29;97811.47;;;12.34
27826;BMP280;15077;49.704;9.908;2023-11-19T02:40:57;97773.28;;;12.35
27826;BMP280;15077;49.704;9.908;2023-11-19T02:43:22;97764.75;;;12.36
27826;BMP280;15077;49.704;9.908;2023-11-19T02:45:48;97751.97;;;12.38
27826;BMP280;15077;49.704;9.908;2023-11-19T02:48:14;97768.88;;;12.39
27826;BMP280;15077;49.704;9.908;2023-11-19T02:50:42;97787.41;;;12.41
27826;BMP280;15077;49.704;9.908;2023-11-19T02:53:07;97761.00;;;12.43
27826;BMP280;15077;49.704;9.908;2023-11-19T02:55:33;97755.84;;;12.45
27826;BMP280;15077;49.704;9.908;2023-11-19T02:58:04;97770.94;;;12.48
27826;BMP280;15077;49.704;9.908;2023-11-19T03:00:45;97771.66;;;12.50
27826;BMP280;15077;49.704;9.908;2023-11-19T03:03:23;97764.78;;;12.52
27826;BMP280;15077;49.704;9.908;2023-11-19T03:05:54;97765.53;;;12.54
27826;BMP280;15077;49.704;9.908;2023-11-19T03:08:20;97765.44;;;12.55
27826;BMP280;15077;49.704;9.908;2023-11-19T03:10:47;97766.09;;;12.58
27826;BMP280;15077;49.704;9.908;2023-11-19T03:13:14;97777.00;;;12.60
27826;BMP280;15077;49.704;9.908;2023-11-19T03:15:40;97777.75;;;12.62
27826;BMP280;15077;49.704;9.908;2023-11-19T03:18:06;97770.84;;;12.64
27826;BMP280;15077;49.704;9.908;2023-11-19T03:20:31;97768.13;;;12.67
27826;BMP280;15077;49.704;9.908;2023-11-19T03:22:57;97772.31;;;12.68
27826;BMP280;15077;49.704;9.908;2023-11-19T03:25:26;97767.06;;;12.71
27826;BMP280;15077;49.704;9.908;2023-11-19T03:28:03;97757.63;;;12.73
27826;BMP280;15077;49.704;9.908;2023-11-19T03:30:29;97749.13;;;12.74
27826;BMP280;15077;49.704;9.908;2023-11-19T03:33:01;97747.22;;;12.78
27826;BMP280;15077;49.704;9.908;2023-11-19T03:35:26;97746.22;;;12.80
27826;BMP280;15077;49.704;9.908;2023-11-19T03:37:53;97746.97;;;12.82
27826;BMP280;15077;49.704;9.908;2023-11-19T03:40:19;97756.19;;;12.85
27826;BMP280;15077;49.704;9.908;2023-11-19T03:42:48;97757.75;;;12.87
27826;BMP280;15077;49.704;9.908;2023-11-19T03:45:13;97754.28;;;12.88
27826;BMP280;15077;49.704;9.908;2023-11-19T03:47:41;97755.78;;;12.92
27826;BMP280;15077;49.704;9.908;2023-11-19T03:50:07;97748.91;;;12.94
27826;BMP280;15077;49.704;9.908;2023-11-19T03:52:34;97747.06;;;12.96
27826;BMP280;15077;49.704;9.908;2023-11-19T03:55:00;97750.25;;;13.00
27826;BMP280;15077;49.704;9.908;2023-11-19T03:57:27;97753.47;;;13.03
27826;BMP280;15077;49.704;9.908;2023-11-19T03:59:53;97748.22;;;13.06
27826;BMP280;15077;49.704;9.908;2023-11-19T04:02:21;97750.66;;;13.08
27826;BMP280;15077;49.704;9.908;2023-11-19T04:04:46;97744.41;;;13.13
27826;BMP280;15077;49.704;9.908;2023-11-19T04:07:12;97745.88;;;13.17
27826;BMP280;15077;49.704;9.908;2023-11-19T04:09:37;97750.00;;;13.19
27826;BMP280;15077;49.704;9.908;2023-11-19T04:12:03;97749.81;;;13.22
27826;BMP280;15077;49.704;9.908;2023-11-19T04:14:29;97750.44;;;13.26
27826;BMP280;15077;49.704;9.908;2023-11-19T04:16:55;97758.81;;;13.28
27826;BMP280;15077;49.704;9.908;2023-11-19T04:19:20;97746.66;;;13.33
27826;BMP280;15077;49.704;9.908;2023-11-19T04:21:46;97751.56;;;13.36
27826;BMP280;15077;49.704;9.908;2023-11-19T04:24:12;97761.50;;;13.40
27826;BMP280;15077;49.704;9.908;2023-11-19T04:26:41;97746.06;;;13.43
27826;BMP280;15077;49.704;9.908;2023-11-19T04:29:15;97744.13;;;13.47
27826;BMP280;15077;49.704;9.908;2023-11-19T04:31:43;97752.53;;;13.49
27826;BMP280;15077;49.704;9.908;2023-11-19T04:34:10;97741.31;;;13.51
27826;BMP280;15077;49.704;9.908;2023-11-19T04:36:36;97731.97;;;13.52
27826;BMP280;15077;49.704;9.908;2023-11-19T04:39:03;97739.44;;;13.55
27826;BMP280;15077;49.704;9.908;2023-11-19T04:41:50;97729.81;;;13.59
27826;BMP280;15077;49.704;9.908;2023-11-19T04:44:17;97723.81;;;13.60
27826;BMP280;15077;49.704;9.908;2023-11-19T04:46:43;97722.72;;;13.64
27826;BMP280;15077;49.704;9.908;2023-11-19T04:49:10;97720.91;;;13.66
27826;BMP280;15077;49.704;9.908;2023-11-19T04:51:40;97727.44;;;13.70
27826;BMP280;15077;49.704;9.908;2023-11-19T04:54:06;97728.91;;;13.74
27826;BMP280;15077;49.704;9.908;2023-11-19T04:56:37;97741.56;;;13.76
27826;BMP280;15077;49.704;9.908;2023-11-19T04:59:03;97739.72;;;13.78
27826;BMP280;15077;49.704;9.908;2023-11-19T05:01:32;97724.34;;;13.79
27826;BMP280;15077;49.704;9.908;2023-11-19T05:03:57;97703.88;;;13.81
27826;BMP280;15077;49.704;9.908;2023-11-19T05:06:30;97715.72;;;13.82
27826;BMP280;15077;49.704;9.908;2023-11-19T05:08:58;97706.38;;;13.82
27826;BMP280;15077;49.704;9.908;2023-11-19T05:11:24;97711.38;;;13.84
27826;BMP280;15077;49.704;9.908;2023-11-19T05:13:49;97711.28;;;13.85
27826;BMP280;15077;49.704;9.908;2023-11-19T05:16:16;97711.09;;;13.88
27826;BMP280;15077;49.704;9.908;2023-11-19T05:18:43;97726.22;;;13.91
27826;BMP280;15077;49.704;9.908;2023-11-19T05:21:09;97732.09;;;13.92
27826;BMP280;15077;49.704;9.908;2023-11-19T05:23:35;97737.84;;;13.95
27826;BMP280;15077;49.704;9.908;2023-11-19T05:26:03;97734.38;;;13.96
27826;BMP280;15077;49.704;9.908;2023-11-19T05:28:29;97735.09;;;13.98
27826;BMP280;15077;49.704;9.908;2023-11-19T05:30:55;97735.84;;;14.00
27826;BMP280;15077;49.704;9.908;2023-11-19T05:33:21;97732.38;;;14.01
27826;BMP280;15077;49.704;9.908;2023-11-19T05:35:47;97737.28;;;14.04
27826;BMP280;15077;49.704;9.908;2023-11-19T05:38:12;97733.88;;;14.05
27826;BMP280;15077;49.704;9.908;2023-11-19T05:40:38;97730.41;;;14.06
27826;BMP280;15077;49.704;9.908;2023-11-19T05:43:04;97732.03;;;14.07
27826;BMP280;15077;49.704;9.908;2023-11-19T05:45:31;97724.31;;;14.08
27826;BMP280;15077;49.704;9.908;2023-11-19T05:47:57;97733.50;;;14.11
27826;BMP280;15077;49.704;9.908;2023-11-19T05:50:23;97718.13;;;14.12
27826;BMP280;15077;49.704;9.908;2023-11-19T05:52:49;97713.03;;;14.12
27826;BMP280;15077;49.704;9.908;2023-11-19T05:55:15;97713.81;;;14.13
27826;BMP280;15077;49.704;9.908;2023-11-19T05:57:41;97723.13;;;14.14
27826;BMP280;15077;49.704;9.908;2023-11-19T06:00:07;97729.03;;;14.14
27826;BMP280;15077;49.704;9.908;2023-11-19T06:02:34;97723.03;;;14.15
27826;BMP280;15077;49.704;9.908;2023-11-19T06:05:00;97729.88;;;14.15
27826;BMP280;15077;49.704;9.908;2023-11-19T06:07:27;97725.31;;;14.20
27826;BMP280;15077;49.704;9.908;2023-11-19T06:09:53;97709.09;;;14.21
27826;BMP280;15077;49.704;9.908;2023-11-19T06:12:18;97711.47;;;14.24
27826;BMP280;15077;49.704;9.908;2023-11-19T06:14:44;97705.44;;;14.25
27826;BMP280;15077;49.704;9.908;2023-11-19T06:17:10;97707.09;;;14.26
27826;BMP280;15077;49.704;9.908;2023-11-19T06:19:37;97698.53;;;14.27
27826;BMP280;15077;49.704;9.908;2023-11-19T06:22:03;97690.78;;;14.28
27826;BMP280;15077;49.704;9.908;2023-11-19T06:24:30;97692.34;;;14.31
27826;BMP280;15077;49.704;9.908;2023-11-19T06:26:56;97709.16;;;14.33
27826;BMP280;15077;49.704;9.908;2023-11-19T06:29:21;97703.25;;;14.33
27826;BMP280;15077;49.704;9.908;2023-11-19T06:31:47;97711.63;;;14.35
27826;BMP280;15077;49.704;9.908;2023-11-19T06:34:15;97713.19;;;14.37
27826;BMP280;15077;49.704;9.908;2023-11-19T06:36:41;97703.59;;;14.41
27826;BMP280;15077;49.704;9.908;2023-11-19T06:39:09;97712.81;;;14.43
27826;BMP280;15077;49.704;9.908;2023-11-19T06:41:36;97720.34;;;14.45
27826;BMP280;15077;49.704;9.908;2023-11-19T06:44:04;97722.72;;;14.48
27826;BMP280;15077;49.704;9.908;2023-11-19T06:46:30;97723.44;;;14.50
27826;BMP280;15077;49.704;9.908;2023-11-19T06:48:56;97707.94;;;14.53
27826;BMP280;15077;49.704;9.908;2023-11-19T06:51:23;97717.94;;;14.55
27826;BMP280;15077;49.704;9.908;2023-11-19T06:53:50;97714.50;;;14.56
27826;BMP280;15077;49.704;9.908;2023-11-19T06:56:19;97703.38;;;14.57
27826;BMP280;15077;49.704;9.908;2023-11-19T06:58:45;97707.56;;;14.58
27826;BMP280;15077;49.704;9.908;2023-11-19T07:01:11;97709.91;;;14.61
27826;BMP280;15077;49.704;9.908;2023-11-19T07:03:37;97692.81;;;14.63
27826;BMP280;15077;49.704;9.908;2023-11-19T07:06:03;97706.97;;;14.67
27826;BMP280;15077;49.704;9.908;2023-11-19T07:08:30;97706.78;;;14.70
27826;BMP280;15077;49.704;9.908;2023-11-19T07:10:56;97719.34;;;14.73
27826;BMP280;15077;49.704;9.908;2023-11-19T07:13:22;97715.91;;;14.74
27826;BMP280;15077;49.704;9.908;2023-11-19T07:15:47;97725.09;;;14.77
27826;BMP280;15077;49.704;9.908;2023-11-19T07:18:13;97732.47;;;14.81
27826;BMP280;15077;49.704;9.908;2023-11-19T07:20:39;97731.47;;;14.84
27826;BMP280;15077;49.704;9.908;2023-11-19T07:23:05;97732.06;;;14.87
27826;BMP280;15077;49.704;9.908;2023-11-19T07:25:31;97734.44;;;14.90
27826;BMP280;15077;49.704;9.908;2023-11-19T07:27:57;97732.59;;;14.92
27826;BMP280;15077;49.704;9.908;2023-11-19T07:30:22;97729.84;;;14.95
27826;BMP280;15077;49.704;9.908;2023-11-19T07:32:48;97742.50;;;14.97
27826;BMP280;15077;49.704;9.908;2023-11-19T07:35:14;97728.03;;;14.97
27826;BMP280;15077;49.704;9.908;2023-11-19T07:37:42;97735.41;;;15.02
27826;BMP280;15077;49.704;9.908;2023-11-19T07:40:08;97733.56;;;15.03
27826;BMP280;15077;49.704;9.908;2023-11-19T07:42:34;97737.66;;;15.06
27826;BMP280;15077;49.704;9.908;2023-11-19T07:44:59;97734.72;;;15.12
27826;BMP280;15077;49.704;9.908;2023-11-19T07:47:25;97738.69;;;15.16
27826;BMP280;15077;49.704;9.908;2023-11-19T07:49:51;97739.38;;;15.19
27826;BMP280;15077;49.704;9.908;2023-11-19T07:52:16;97728.97;;;15.22
27826;BMP280;15077;49.704;9.908;2023-11-19T07:54:42;97738.16;;;15.25
27826;BMP280;15077;49.704;9.908;2023-11-19T07:57:08;97735.41;;;15.28
27826;BMP280;15077;49.704;9.908;2023-11-19T07:59:33;97739.38;;;15.32
27826;BMP280;15077;49.704;9.908;2023-11-19T08:01:59;97739.94;;;15.37
27826;BMP280;15077;49.704;9.908;2023-11-19T08:04:25;97742.28;;;15.40
27826;BMP280;15077;49.704;9.908;2023-11-19T08:06:50;97742.88;;;15.43
27826;BMP280;15077;49.704;9.908;2023-11-19T08:09:17;97744.34;;;15.47
27826;BMP280;15077;49.704;9.908;2023-11-19T08:11:43;97743.94;;;15.53
27826;BMP280;15077;49.704;9.908;2023-11-19T08:14:09;97746.19;;;15.57
27826;BMP280;15077;49.704;9.908;2023-11-19T08:16:35;97745.78;;;15.63
27826;BMP280;15077;49.704;9.908;2023-11-19T08:19:01;97742.91;;;15.68
27826;BMP280;15077;49.704;9.908;2023-11-19T08:21:28;97755.41;;;15.72
27826;BMP280;15077;49.704;9.908;2023-11-19T08:23:54;97763.56;;;15.77
27826;BMP280;15077;49.704;9.908;2023-11-19T08:26:20;97754.78;;;15.81
27826;BMP280;15077;49.704;9.908;2023-11-19T08:28:45;97753.56;;;15.87
27826;BMP280;15077;49.704;9.908;2023-11-19T08:31:11;97751.41;;;15.93
27826;BMP280;15077;49.704;9.908;2023-11-19T08:33:36;97757.97;;;15.97
27826;BMP280;15077;49.704;9.908;2023-11-19T08:36:03;97756.72;;;16.02
27826;BMP280;15077;49.704;9.908;2023-11-19T08:38:29;97763.16;;;16.08
27826;BMP280;15077;49.704;9.908;2023-11-19T08:40:55;97757.03;;;16.10
27826;BMP280;15077;49.704;9.908;2023-11-19T08:43:25;97755.81;;;16.16
27826;BMP280;15077;49.704;9.908;2023-11-19T08:45:51;97753.75;;;16.21
27826;BMP280;15077;49.704;9.908;2023-11-19T08:48:17;97757.03;;;16.23
27826;BMP280;15077;49.704;9.908;2023-11-19T08:50:42;97757.47;;;16.29
27826;BMP280;15077;49.704;9.908;2023-11-19T08:53:08;97754.59;;;16.34
27826;BMP280;15077;49.704;9.908;2023-11-19T08:55:34;97732.28;;;16.36
27826;BMP280;15077;49.704;9.908;2023-11-19T08:57:59;97749.88;;;16.40
27826;BMP280;15077;49.704;9.908;2023-11-19T09:00:25;97762.34;;;16.45
27826;BMP280;15077;49.704;9.908;2023-11-19T09:02:50;97771.34;;;16.50
27826;BMP280;15077;49.704;9.908;2023-11-19T09:05:16;97771.03;;;16.54
27826;BMP280;15077;49.704;9.908;2023-11-19T09:07:42;97773.16;;;16.60
27826;BMP280;15077;49.704;9.908;2023-11-19T09:10:08;97759.94;;;16.66
27826;BMP280;15077;49.704;9.908;2023-11-19T09:12:34;97770.34;;;16.76
27826;BMP280;15077;49.704;9.908;2023-11-19T09:15:00;97775.66;;;16.85
27826;BMP280;15077;49.704;9.908;2023-11-19T09:17:26;97780.00;;;16.96
27826;BMP280;15077;49.704;9.908;2023-11-19T09:19:51;97776.91;;;17.03
27826;BMP280;15077;49.704;9.908;2023-11-19T09:22:17;97770.31;;;17.11
27826;BMP280;15077;49.704;9.908;2023-11-19T09:24:43;97775.81;;;17.18
27826;BMP280;15077;49.704;9.908;2023-11-19T09:27:10;97783.09;;;17.24
27826;BMP280;15077;49.704;9.908;2023-11-19T09:29:36;97771.72;;;17.28
27826;BMP280;15077;49.704;9.908;2023-11-19T09:32:01;97779.06;;;17.32
27826;BMP280;15077;49.704;9.908;2023-11-19T09:34:27;97778.84;;;17.35
27826;BMP280;15077;49.704;9.908;2023-11-19T09:36:53;97781.28;;;17.37
27826;BMP280;15077;49.704;9.908;2023-11-19T09:39:19;97784.53;;;17.39
27826;BMP280;15077;49.704;9.908;2023-11-19T09:41:46;97782.91;;;17.38
27826;BMP280;15077;49.704;9.908;2023-11-19T09:44:12;97781.06;;;17.40
27826;BMP280;15077;49.704;9.908;2023-11-19T09:46:41;97767.09;;;17.44
27826;BMP280;15077;49.704;9.908;2023-11-19T09:49:08;97762.34;;;17.50
27826;BMP280;15077;49.704;9.908;2023-11-19T09:51:35;97759.81;;;17.61
27826;BMP280;15077;49.704;9.908;2023-11-19T09:54:01;97757.41;;;17.70
27826;BMP280;15077;49.704;9.908;2023-11-19T09:56:29;97743.91;;;17.79
27826;BMP280;15077;49.704;9.908;2023-11-19T09:58:55;97761.06;;;17.90
27826;BMP280;15077;49.704;9.908;2023-11-19T10:01:21;97751.75;;;17.99
27826;BMP280;15077;49.704;9.908;2023-11-19T10:03:47;97754.19;;;18.12
27826;BMP280;15077;49.704;9.908;2023-11-19T10:06:15;97755.19;;;18.22
27826;BMP280;15077;49.704;9.908;2023-11-19T10:08:41;97747.13;;;18.26
27826;BMP280;15077;49.704;9.908;2023-11-19T10:11:09;97752.16;;;18.28
27826;BMP280;15077;49.704;9.908;2023-11-19T10:13:37;97740.34;;;18.25
27826;BMP280;15077;49.704;9.908;2023-11-19T10:16:12;97745.03;;;18.20
27826;BMP280;15077;49.704;9.908;2023-11-19T10:18:45;97749.66;;;18.15
27826;BMP280;15077;49.704;9.908;2023-11-19T10:21:14;97750.00;;;18.11
27826;BMP280;15077;49.704;9.908;2023-11-19T10:23:48;97756.75;;;18.01
27826;BMP280;15077;49.704;9.908;2023-11-19T10:26:15;97751.72;;;17.89
27826;BMP280;15077;49.704;9.908;2023-11-19T10:28:41;97748.09;;;17.80
27826;BMP280;15077;49.704;9.908;2023-11-19T10:31:09;97751.22;;;17.73
27826;BMP280;15077;49.704;9.908;2023-11-19T10:33:35;97747.38;;;17.67
27826;BMP280;15077;49.704;9.908;2023-11-19T10:36:01;97749.94;;;17.67
27826;BMP280;15077;49.704;9.908;2023-11-19T10:38:26;97755.06;;;17.67
27826;BMP280;15077;49.704;9.908;2023-11-19T10:40:52;97749.59;;;17.72
27826;BMP280;15077;49.704;9.908;2023-11-19T10:43:20;97752.63;;;17.77
27826;BMP280;15077;49.704;9.908;2023-11-19T10:45:47;97754.63;;;17.84
27826;BMP280;15077;49.704;9.908;2023-11-19T10:48:13;97753.25;;;17.91
27826;BMP280;15077;49.704;9.908;2023-11-19T10:50:40;97750.34;;;17.96
27826;BMP280;15077;49.704;9.908;2023-11-19T10:53:09;97745.78;;;17.99
27826;BMP280;15077;49.704;9.908;2023-11-19T10:55:38;97759.34;;;18.01
27826;BMP280;15077;49.704;9.908;2023-11-19T10:58:05;97744.63;;;18.03
27826;BMP280;15077;49.704;9.908;2023-11-19T11:00:48;97743.00;;;18.02
27826;BMP280;15077;49.704;9.908;2023-11-19T11:03:18;97746.63;;;17.99
27826;BMP280;15077;49.704;9.908;2023-11-19T11:05:49;97749.38;;;17.97
27826;BMP280;15077;49.704;9.908;2023-11-19T11:08:16;97746.47;;;17.90
27826;BMP280;15077;49.704;9.908;2023-11-19T11:10:52;97744.72;;;17.80
27826;BMP280;15077;49.704;9.908;2023-11-19T11:13:18;97744.38;;;17.73
27826;BMP280;15077;49.704;9.908;2023-11-19T11:15:48;97741.31;;;17.68
27826;BMP280;15077;49.704;9.908;2023-11-19T11:18:13;97743.19;;;17.66
27826;BMP280;15077;49.704;9.908;2023-11-19T11:20:40;97749.22;;;17.65
27826;BMP280;15077;49.704;9.908;2023-11-19T11:26:32;97756.66;;;17.57
27826;BMP280;15077;49.704;9.908;2023-11-19T11:29:05;97741.00;;;17.49
27826;BMP280;15077;49.704;9.908;2023-11-19T11:31:48;97741.25;;;17.47
27826;BMP280;15077;49.704;9.908;2023-11-19T11:34:50;97734.13;;;17.39
27826;BMP280;15077;49.704;9.908;2023-11-19T11:37:25;97725.97;;;17.34
27826;BMP280;15077;49.704;9.908;2023-11-19T11:39:51;97727.00;;;17.32
27826;BMP280;15077;49.704;9.908;2023-11-19T11:45:08;97723.03;;;17.28
27826;BMP280;15077;49.704;9.908;2023-11-19T11:50:10;97728.53;;;17.34
27826;BMP280;15077;49.704;9.908;2023-11-19T11:55:33;97727.41;;;17.49
27826;BMP280;15077;49.704;9.908;2023-11-19T11:58:00;97718.22;;;17.57
27826;BMP280;15077;49.704;9.908;2023-11-19T12:00:33;97729.44;;;17.67
27826;BMP280;15077;49.704;9.908;2023-11-19T12:03:04;97729.56;;;17.77
27826;BMP280;15077;49.704;9.908;2023-11-19T12:05:30;97735.75;;;17.85
27826;BMP280;15077;49.704;9.908;2023-11-19T12:08:00;97727.38;;;17.94
27826;BMP280;15077;49.704;9.908;2023-11-19T12:10:29;97743.81;;;18.02
27826;BMP280;15077;49.704;9.908;2023-11-19T12:12:59;97720.16;;;18.10
27826;BMP280;15077;49.704;9.908;2023-11-19T12:15:25;97724.75;;;18.17
27826;BMP280;15077;49.704;9.908;2023-11-19T12:17:54;97727.53;;;18.25
27826;BMP280;15077;49.704;9.908;2023-11-19T12:20:24;97719.34;;;18.31
27826;BMP280;15077;49.704;9.908;2023-11-19T12:22:50;97713.63;;;18.39
27826;BMP280;15077;49.704;9.908;2023-11-19T12:25:17;97711.63;;;18.42
27826;BMP280;15077;49.704;9.908;2023-11-19T12:27:48;97721.47;;;18.48
27826;BMP280;15077;49.704;9.908;2023-11-19T12:30:24;97711.19;;;18.48
27826;BMP280;15077;49.704;9.908;2023-11-19T12:32:50;97707.22;;;18.44
27826;BMP280;15077;49.704;9.908;2023-11-19T12:35:16;97713.41;;;18.42
27826;BMP280;15077;49.704;9.908;2023-11-19T12:37:46;97712.59;;;18.41
27826;BMP280;15077;49.704;9.908;2023-11-19T12:42:38;97703.38;;;18.39
27826;BMP280;15077;49.704;9.908;2023-11-19T12:45:05;97701.97;;;18.35
27826;BMP280;15077;49.704;9.908;2023-11-19T12:47:30;97696.28;;;18.31
27826;BMP280;15077;49.704;9.908;2023-11-19T12:49:57;97699.19;;;18.27
27826;BMP280;15077;49.704;9.908;2023-11-19T12:52:22;97695.94;;;18.25
27826;BMP280;15077;49.704;9.908;2023-11-19T12:54:49;97689.41;;;18.21
27826;BMP280;15077;49.704;9.908;2023-11-19T12:57:15;97681.25;;;18.16
27826;BMP280;15077;49.704;9.908;2023-11-19T12:59:41;97685.75;;;18.12
27826;BMP280;15077;49.704;9.908;2023-11-19T13:02:07;97691.13;;;18.09
27826;BMP280;15077;49.704;9.908;2023-11-19T13:04:33;97692.31;;;18.05
27826;BMP280;15077;49.704;9.908;2023-11-19T13:06:59;97684.97;;;18.01
27826;BMP280;15077;49.704;9.908;2023-11-19T13:09:28;97676.66;;;17.98
27826;BMP280;15077;49.704;9.908;2023-11-19T13:11:55;97682.84;;;17.95
27826;BMP280;15077;49.704;9.908;2023-11-19T13:14:22;97687.97;;;17.95
27826;BMP280;15077;49.704;9.908;2023-11-19T13:16:49;97676.09;;;17.94
27826;BMP280;15077;49.704;9.908;2023-11-19T13:19:15;97687.03;;;17.96
27826;BMP280;15077;49.704;9.908;2023-11-19T13:21:47;97680.06;;;17.98
27826;BMP280;15077;49.704;9.908;2023-11-19T13:24:13;97681.56;;;18.00
27826;BMP280;15077;49.704;9.908;2023-11-19T13:26:39;97680.53;;;18.03
27826;BMP280;15077;49.704;9.908;2023-11-19T13:29:05;97664.91;;;18.06
27826;BMP280;15077;49.704;9.908;2023-11-19T13:31:32;97663.16;;;18.06
27826;BMP280;15077;49.704;9.908;2023-11-19T13:33:58;97661.41;;;18.07
27826;BMP280;15077;49.704;9.908;2023-11-19T13:36:24;97662.09;;;18.09
27826;BMP280;15077;49.704;9.908;2023-11-19T13:38:50;97664.66;;;18.09
27826;BMP280;15077;49.704;9.908;2023-11-19T13:41:16;97657.91;;;18.08
27826;BMP280;15077;49.704;9.908;2023-11-19T13:43:43;97656.28;;;18.07
27826;BMP280;15077;49.704;9.908;2023-11-19T13:46:09;97662.34;;;18.06
27826;BMP280;15077;49.704;9.908;2023-11-19T13:48:35;97663.25;;;18.05
27826;BMP280;15077;49.704;9.908;2023-11-19T13:51:00;97669.34;;;18.04
27826;BMP280;15077;49.704;9.908;2023-11-19T13:53:26;97667.94;;;18.00
27826;BMP280;15077;49.704;9.908;2023-11-19T13:55:52;97663.84;;;17.98
27826;BMP280;15077;49.704;9.908;2023-11-19T13:58:18;97659.63;;;17.97
27826;BMP280;15077;49.704;9.908;2023-11-19T14:00:44;97655.34;;;17.97
27826;BMP280;15077;49.704;9.908;2023-11-19T14:03:09;97657.91;;;17.97
27826;BMP280;15077;49.704;9.908;2023-11-19T14:05:38;97652.91;;;17.96
27826;BMP280;15077;49.704;9.908;2023-11-19T14:08:06;97641.81;;;17.95
27826;BMP280;15077;49.704;9.908;2023-11-19T14:10:39;97650.47;;;17.94
27826;BMP280;15077;49.704;9.908;2023-11-19T14:13:08;97653.94;;;17.93
27826;BMP280;15077;49.704;9.908;2023-11-19T14:15:35;97661.63;;;17.93
27826;BMP280;15077;49.704;9.908;2023-11-19T14:18:01;97644.84;;;17.89
27826;BMP280;15077;49.704;9.908;2023-11-19T14:20:27;97644.16;;;17.87
27826;BMP280;15077;49.704;9.908;2023-11-19T14:22:52;97641.84;;;17.84
27826;BMP280;15077;49.704;9.908;2023-11-19T14:25:18;97639.50;;;17.81